LEZL/SVQ METAR and TAF weather

Enter ICAO airport designator
Station Type Date Time Source
LEZL METAR 2019/11/22 01:00 UTC NOAA

LEZL 220100Z AUTO 23003KT 8000 SCT005 BKN017 BKN022 15/14 Q1007


Station Type Date Time Source
LEZL Decoded METAR 2019/11/22 01:00 UTC NOAA

Sevilla / San Pablo, Spain (LEZL) 37-25N 005-54W 31M
Nov 21, 2019 - 08:00 PM EST / 2019.11.22 0100 UTC
Wind: from the SW (230 degrees) at 3 MPH (3 KT):0
Visibility: 4 mile(s):0
Sky conditions: mostly cloudy
Temperature: 59 F (15 C)
Dew Point: 57 F (14 C)
Relative Humidity: 93%
Pressure (altimeter): 29.74 in. Hg (1007 hPa)
ob: LEZL 220100Z AUTO 23003KT 8000 SCT005 BKN017 BKN022 15/14 Q1007
cycle: 1

Station Type Date Time Source
LEZL TAF 2019/11/21 21:54 UTC NOAA

TAF
AMD LEZL 212045Z 2121/2221 23005KT 9999 SCT020 BKN030 TX16/2215Z TN12/2206Z PROB40
TEMPO 2121/2209 2000 -RADZ BR BKN005 PROB30
TEMPO 2200/2206 0500 FG VV001
BECMG 2211/2213 23015KT
TEMPO 2209/2218 23015G25KT 3000 RA BKN010

Example: see airport list